Terminal Aerodrome Forecast
Issued by NWS

Home | Current Version | Previous Version | Graphics & Text | Print | Product List | Glossary On
Versions: 1 2 3 4 5 6 7 8 9 10 11 12 13 14 15 16 17 18
000
FTUS45 KGGW 101100
TAFSDY
TAF
KSDY 101121Z 1012/1112 19010KT P6SM -SHRA SCT050 OVC080
      TEMPO 1012/1014 -TSRA OVC050CB
     FM101500 18009KT P6SM BKN090
     FM101900 28010KT P6SM SCT110
     FM110000 34011KT P6SM SKC
      AMD LTD TO CLD VIS AND WIND=

USA.gov is the U.S. government's official web portal to all federal, state and local government web resources and services.